createdAt,value
2022-10-19T00:02:51.528Z,84.24
2022-10-19T00:07:57.478Z,84.00
2022-10-19T00:13:04.927Z,84.00
2022-10-19T00:18:11.682Z,84.10
2022-10-19T00:23:18.769Z,83.51
2022-10-19T00:28:27.653Z,84.12
2022-10-19T00:33:34.005Z,84.16
2022-10-19T00:38:39.923Z,84.58
2022-10-19T00:44:00.450Z,84.36
2022-10-19T00:49:12.673Z,84.92
2022-10-19T00:54:20.399Z,85.15
2022-10-19T00:59:32.036Z,85.05
2022-10-19T01:04:41.807Z,85.09
2022-10-19T01:09:48.384Z,84.95
2022-10-19T01:15:14.002Z,85.30
2022-10-19T01:21:06.434Z,85.62
2022-10-19T01:26:36.414Z,85.56
2022-10-19T01:31:49.442Z,85.27
2022-10-19T01:37:04.429Z,85.58
2022-10-19T01:42:17.530Z,85.89
2022-10-19T01:47:31.954Z,85.87
2022-10-19T01:52:42.381Z,85.59
2022-10-19T01:57:56.951Z,86.20
2022-10-19T02:03:07.680Z,85.89
2022-10-19T02:08:19.941Z,85.56
2022-10-19T02:13:30.101Z,85.64
2022-10-19T02:18:44.595Z,85.71
2022-10-19T02:23:54.167Z,85.25
2022-10-19T02:29:03.273Z,85.15
2022-10-19T02:34:11.730Z,84.89
2022-10-19T02:39:31.799Z,85.15
2022-10-19T02:44:45.505Z,84.56
2022-10-19T02:49:53.853Z,84.83
2022-10-19T02:55:01.413Z,84.86
2022-10-19T03:00:10.740Z,84.86
2022-10-19T03:05:18.134Z,85.24
2022-10-19T03:10:24.075Z,85.26
2022-10-19T03:15:30.521Z,85.53
2022-10-19T03:20:38.130Z,85.83
2022-10-19T03:25:44.303Z,85.71
2022-10-19T03:30:51.781Z,85.78
2022-10-19T03:36:22.291Z,85.82
2022-10-19T03:41:30.925Z,85.76
2022-10-19T03:46:38.607Z,85.78
2022-10-19T03:51:46.273Z,86.22
2022-10-19T03:56:52.384Z,85.69
2022-10-19T04:01:58.221Z,85.61
2022-10-19T04:07:06.811Z,85.23
2022-10-19T04:12:13.113Z,85.38
2022-10-19T04:17:21.872Z,85.27
2022-10-19T04:22:31.699Z,85.48
2022-10-19T04:27:38.097Z,85.37
2022-10-19T04:32:43.886Z,85.29
2022-10-19T04:37:51.668Z,85.21
2022-10-19T04:42:57.914Z,85.48
2022-10-19T04:48:04.628Z,85.30
2022-10-19T04:53:12.245Z,85.14
2022-10-19T04:58:18.565Z,84.71
2022-10-19T05:03:24.458Z,84.79
2022-10-19T05:08:31.861Z,84.80
2022-10-19T05:13:37.992Z,84.42
2022-10-19T05:18:44.092Z,84.98
2022-10-19T05:23:54.687Z,85.30
2022-10-19T05:29:04.687Z,85.08
2022-10-19T05:34:11.076Z,84.87
2022-10-19T05:39:39.035Z,85.18
2022-10-19T05:44:46.673Z,84.78
2022-10-19T05:49:53.105Z,84.91
2022-10-19T05:55:00.528Z,85.12
2022-10-19T06:00:07.845Z,85.57
2022-10-19T06:05:17.950Z,85.40
2022-10-19T06:10:25.315Z,85.51
2022-10-19T06:15:33.920Z,84.96
2022-10-19T06:20:41.968Z,85.12
2022-10-19T06:25:49.540Z,85.06
2022-10-19T06:30:55.632Z,84.93
2022-10-19T06:36:09.136Z,84.80
2022-10-19T06:41:17.831Z,84.97
2022-10-19T06:46:26.647Z,84.33
2022-10-19T06:51:34.888Z,84.56
2022-10-19T06:56:43.401Z,84.69
2022-10-19T07:01:49.414Z,85.13
2022-10-19T07:06:55.448Z,84.93
2022-10-19T07:12:03.048Z,84.87
2022-10-19T07:17:11.958Z,84.40
2022-10-19T07:22:22.195Z,84.31
2022-10-19T07:27:37.383Z,84.05
2022-10-19T07:32:46.965Z,83.74
2022-10-19T07:37:53.349Z,84.41
2022-10-19T07:43:01.468Z,84.32
2022-10-19T07:48:08.323Z,84.18
2022-10-19T07:53:14.492Z,84.24
2022-10-19T07:58:22.014Z,84.58
2022-10-19T08:04:31.785Z,84.98
2022-10-19T08:08:56.250Z,84.96
2022-10-19T08:14:04.873Z,85.38
2022-10-19T08:19:14.319Z,85.12
2022-10-19T08:24:21.745Z,85.06
2022-10-19T08:29:31.480Z,85.08
2022-10-19T08:34:38.122Z,85.04
2022-10-19T08:39:44.030Z,85.47
2022-10-19T08:45:20.624Z,84.84
2022-10-19T08:50:30.837Z,84.45
2022-10-19T08:55:52.403Z,84.33
2022-10-19T09:01:08.930Z,83.94
2022-10-19T09:06:24.563Z,83.77
2022-10-19T09:11:34.373Z,84.34
2022-10-19T09:16:41.894Z,84.08
2022-10-19T09:21:53.243Z,83.75
2022-10-19T09:27:03.072Z,83.19
2022-10-19T09:32:19.752Z,83.62
2022-10-19T09:37:27.000Z,83.70
2022-10-19T09:42:37.181Z,83.75
2022-10-19T09:47:50.095Z,83.58
2022-10-19T09:52:59.077Z,83.91
2022-10-19T09:58:07.830Z,83.32
2022-10-19T10:03:29.601Z,84.14
2022-10-19T10:08:40.799Z,84.18
2022-10-19T10:13:53.732Z,83.67
2022-10-19T10:19:07.795Z,83.99
2022-10-19T10:24:20.800Z,83.23
2022-10-19T10:29:30.234Z,82.91
2022-10-19T10:35:01.036Z,82.77
2022-10-19T10:40:23.748Z,82.72
2022-10-19T10:45:35.170Z,82.02
2022-10-19T10:50:43.078Z,81.54
2022-10-19T10:56:00.039Z,80.99
2022-10-19T11:01:24.046Z,80.96
2022-10-19T11:06:34.491Z,80.80
2022-10-19T11:11:47.056Z,79.01
2022-10-19T11:16:57.506Z,77.60
2022-10-19T11:22:23.589Z,78.52
2022-10-19T11:27:49.362Z,78.83
2022-10-19T11:33:06.718Z,78.71
2022-10-19T11:38:48.641Z,76.70
2022-10-19T11:44:22.815Z,77.15
2022-10-19T11:49:48.661Z,76.04
2022-10-19T11:55:17.968Z,74.63
2022-10-19T12:00:38.828Z,74.03
2022-10-19T12:06:02.509Z,72.55
2022-10-19T12:11:28.965Z,73.84
2022-10-19T12:16:41.797Z,74.36
2022-10-19T12:21:49.514Z,73.04
2022-10-19T12:26:57.630Z,74.29
2022-10-19T12:32:06.589Z,72.79
2022-10-19T12:37:20.439Z,69.72
2022-10-19T12:42:35.014Z,71.96
2022-10-19T12:47:43.041Z,72.42
2022-10-19T12:52:53.174Z,71.64
2022-10-19T12:58:08.265Z,70.77
2022-10-19T13:03:27.622Z,72.00
2022-10-19T13:08:42.786Z,72.75
2022-10-19T13:14:06.898Z,72.30
2022-10-19T13:19:32.367Z,72.92
2022-10-19T13:29:53.588Z,72.44
2022-10-19T13:35:33.071Z,73.50
2022-10-19T13:40:41.216Z,71.10
2022-10-19T13:45:56.806Z,72.70
2022-10-19T13:51:13.991Z,71.46
2022-10-19T14:02:30.026Z,72.40
2022-10-19T14:07:50.018Z,71.01
2022-10-19T14:12:57.423Z,71.40
2022-10-19T14:18:24.988Z,71.88
2022-10-19T14:23:33.922Z,71.02
2022-10-19T14:28:42.162Z,72.59
2022-10-19T14:33:57.651Z,72.31
2022-10-19T14:39:04.030Z,69.56
2022-10-19T14:44:42.240Z,71.58
2022-10-19T14:49:50.731Z,70.59
2022-10-19T14:54:59.046Z,71.21
2022-10-19T15:00:11.115Z,72.47
2022-10-19T15:05:24.390Z,71.91
2022-10-19T15:10:43.900Z,71.83
2022-10-19T15:15:54.039Z,70.23
2022-10-19T15:21:14.945Z,67.74
2022-10-19T15:26:31.595Z,68.18
2022-10-19T15:31:42.323Z,70.00
2022-10-19T15:42:40.145Z,68.62
2022-10-19T15:48:31.948Z,69.41
2022-10-19T15:53:38.722Z,69.29
2022-10-19T15:58:46.594Z,70.92
2022-10-19T16:03:53.233Z,68.90
2022-10-19T16:09:01.594Z,70.08
2022-10-19T16:14:09.934Z,70.44
2022-10-19T16:19:16.638Z,69.81
2022-10-19T16:24:22.778Z,70.13
2022-10-19T16:29:30.963Z,70.78
2022-10-19T16:34:38.424Z,70.41
2022-10-19T16:39:44.615Z,70.41
2022-10-19T16:44:54.997Z,70.71
2022-10-19T16:50:04.746Z,70.41
2022-10-19T16:55:12.252Z,71.07
2022-10-19T17:00:20.691Z,70.65
2022-10-19T17:05:27.792Z,71.25
2022-10-19T17:10:38.674Z,72.12
2022-10-19T17:15:46.695Z,71.44
2022-10-19T17:20:55.548Z,71.19
2022-10-19T17:26:02.339Z,71.57
2022-10-19T17:31:13.303Z,70.93
2022-10-19T17:36:27.997Z,70.65
2022-10-19T17:41:35.777Z,71.15
2022-10-19T17:46:46.763Z,71.56
2022-10-19T17:51:54.949Z,71.84
2022-10-19T17:57:02.189Z,71.85
2022-10-19T18:02:12.215Z,72.18
2022-10-19T18:07:20.153Z,72.38
2022-10-19T18:12:28.008Z,72.33
2022-10-19T18:17:37.273Z,73.08
2022-10-19T18:22:47.629Z,72.73
2022-10-19T18:27:55.162Z,72.18
2022-10-19T18:33:03.411Z,73.24
2022-10-19T18:38:10.603Z,73.00
2022-10-19T18:43:19.588Z,73.11
2022-10-19T18:48:31.472Z,73.33
2022-10-19T18:53:38.882Z,73.25
2022-10-19T18:58:46.929Z,73.61
2022-10-19T19:04:01.297Z,73.73
2022-10-19T19:09:11.884Z,73.92
2022-10-19T19:14:23.817Z,74.18
2022-10-19T19:19:34.181Z,74.15
2022-10-19T19:24:43.171Z,74.62
2022-10-19T19:29:51.455Z,74.36
2022-10-19T19:35:00.213Z,74.29
2022-10-19T19:40:08.771Z,73.79
2022-10-19T19:45:16.700Z,74.14
2022-10-19T19:50:24.755Z,74.51
2022-10-19T19:55:39.054Z,74.73
2022-10-19T20:00:47.185Z,74.93
2022-10-19T20:05:57.500Z,74.31
2022-10-19T20:11:06.538Z,75.33
2022-10-19T20:16:15.293Z,74.26
2022-10-19T20:21:26.413Z,74.94
2022-10-19T20:26:33.643Z,74.57
2022-10-19T20:31:41.786Z,75.08
2022-10-19T20:36:49.802Z,74.79
2022-10-19T20:41:57.466Z,75.29
2022-10-19T20:47:04.512Z,74.66
2022-10-19T20:52:12.061Z,75.25
2022-10-19T20:57:18.410Z,74.70
2022-10-19T21:02:24.414Z,75.12
2022-10-19T21:07:32.305Z,75.64
2022-10-19T21:12:38.574Z,75.61
2022-10-19T21:17:44.889Z,75.62
2022-10-19T21:22:52.219Z,76.38
2022-10-19T21:27:58.362Z,76.10
2022-10-19T21:33:04.348Z,76.39
2022-10-19T21:38:11.589Z,76.54
2022-10-19T21:43:17.560Z,76.57
2022-10-19T21:48:24.428Z,76.77
2022-10-19T21:53:31.879Z,76.57
2022-10-19T21:58:38.358Z,77.17
2022-10-19T22:03:44.453Z,76.75
2022-10-19T22:08:51.839Z,76.88
2022-10-19T22:13:59.438Z,76.94
2022-10-19T22:19:07.515Z,76.94
2022-10-19T22:24:17.066Z,76.86
2022-10-19T22:29:23.127Z,76.72
2022-10-19T22:34:29.095Z,76.91
2022-10-19T22:39:36.640Z,76.70
2022-10-19T22:44:43.009Z,76.03
2022-10-19T22:49:49.255Z,76.14
2022-10-19T22:54:57.020Z,76.59
2022-10-19T23:00:03.143Z,76.93
2022-10-19T23:05:11.573Z,76.20
2022-10-19T23:10:19.501Z,75.60
2022-10-19T23:15:25.597Z,75.45
2022-10-19T23:20:31.750Z,75.70
2022-10-19T23:25:39.301Z,76.30
2022-10-19T23:30:45.949Z,76.01
2022-10-19T23:35:52.058Z,75.48
2022-10-19T23:40:59.689Z,75.42
2022-10-19T23:46:06.729Z,75.91
2022-10-19T23:51:16.152Z,75.54
2022-10-19T23:56:24.240Z,76.57
